Strait Of Dover, United Kingdom
Current Conditions -  °F | °C
As of 6:50 PM on Wednesday 22 Oct 2014 (Local Time) from EGMD Reporting Station
Clear Clear  
Wind Chill: 12°   Ceiling: Unl
Heat Index: 12°   Visibility: 6mi
Dew Point:   Wind: 9mph
Humidity: 77%   Direction: 250°WSW
Pressure: 30.27"   Gusts: NA
Location:  51°N, 1.42°E
Report Text: EGMD 221750Z 25008KT CAVOK 12/08 Q1025
Loading
Personal Weather Stations






























Interactive Weather Map
Tropical Storm Tracking
New forecast layout! Learn more

10-Day Weather Forecast

Advertisements
Track Severe Weather on mobile